Terminal Aerodrome Forecast
Issued by NWS

Home | Current Version | Previous Version | Text Only | Print | Product List | Glossary On
Versions: 1 2 3 4 5 6 7 8 9 10 11 12 13 14 15 16 17 18 19 20 21 22 23 24 25 26 27 28
000
FTUS43 KDLH 252200 AAD
TAFHIB
TAF AMD
KHIB 252204Z 2522/2618 30015G22KT P6SM -RASN OVC025
      TEMPO 2522/2602 3SM -SN OVC018
     FM260600 32015G25KT P6SM OVC030
     FM261200 34012G20KT P6SM BKN035
     FM261500 35013KT P6SM SCT035=

USA.gov is the U.S. government's official web portal to all federal, state and local government web resources and services.